Time;durP1;ratioP1;P1;durP2;ratioP2;P2;SDS_P1;SDS_P2;PMS_P1;PMS_P2;Temp;Humidity;BMP_temperature;BMP_pressure;BME280_temperature;BME280_humidity;BME280_pressure;Samples;Min_cycle;Max_cycle;Signal;HPM_P1;HPM_P2
2023/03/21 00:00:39;;;;;;;;;;;;;;;16.91;46.47;93452.31;4989752;28;20017;-88
2023/03/21 00:03:05;;;;;;;;;;;;;;;16.93;46.49;93451.81;5009584;28;20374;-89
2023/03/21 00:05:30;;;;;;;;;;;;;;;16.91;46.61;93454.31;5020437;28;19972;-89
2023/03/21 00:07:55;;;;;;;;;;;;;;;16.90;46.45;93448.09;4997222;28;19936;-89
2023/03/21 00:10:21;;;;;;;;;;;;;;;16.91;46.44;93441.41;5002404;28;19987;-89
2023/03/21 00:12:49;;;;;;;;;;;;;;;16.91;46.39;93440.66;5005673;28;20367;-89
2023/03/21 00:15:17;;;;;;;;;;;;;;;16.92;46.86;93442.91;4986808;28;20460;-88
2023/03/21 00:17:43;;;;;;;;;;;;;;;16.92;46.64;93450.34;5002333;28;19980;-89
2023/03/21 00:20:13;;;;;;;;;;;;;;;16.92;46.66;93448.34;5001880;28;20435;-89
2023/03/21 00:22:39;;;;;;;;;;;;;;;16.92;46.30;93451.09;5002388;28;20009;-89
2023/03/21 00:25:04;;;;;;;;;;;;;;;16.91;46.59;93459.78;5014436;28;20016;-89
2023/03/21 00:27:32;;;;;;;;;;;;;;;16.90;46.38;93456.31;5027758;28;19936;-88
2023/03/21 00:29:57;;;;;;;;;;;;;;;16.90;46.64;93444.63;5009534;28;19925;-90
2023/03/21 00:32:22;;;;;;;;;;;;;;;16.90;46.52;93456.31;5006151;28;19930;-89
2023/03/21 00:34:48;;;;;;;;;;;;;;;16.90;46.38;93456.31;5022333;28;19944;-89
2023/03/21 00:37:16;;;;;;;;;;;;;;;16.90;46.40;93448.09;5017511;28;20302;-88
2023/03/21 00:39:42;;;;;;;;;;;;;;;16.90;46.75;93444.63;5016587;28;20365;-90
2023/03/21 00:42:08;;;;;;;;;;;;;;;16.91;46.67;93446.88;5034496;28;19929;-89
2023/03/21 00:44:35;;;;;;;;;;;;;;;16.90;46.39;93445.38;5038922;28;20003;-89
2023/03/21 00:47:04;;;;;;;;;;;;;;;16.90;46.28;93434.47;5021327;28;19953;-89
2023/03/21 00:49:32;;;;;;;;;;;;;;;16.90;46.40;93431.72;5018707;28;19926;-89
2023/03/21 00:52:00;;;;;;;;;;;;;;;16.89;46.66;93430.25;5019695;28;19971;-89
2023/03/21 00:54:25;;;;;;;;;;;;;;;16.89;46.63;93426.78;5020832;28;19965;-89
2023/03/21 00:56:51;;;;;;;;;;;;;;;16.89;46.29;93422.03;5018636;28;20437;-89
2023/03/21 00:59:16;;;;;;;;;;;;;;;16.88;46.82;93417.13;5018242;28;19960;-88
2023/03/21 01:01:41;;;;;;;;;;;;;;;16.89;46.63;93418.59;5026576;28;19929;-88
2023/03/21 01:04:12;;;;;;;;;;;;;;;16.88;46.58;93411.66;5030686;28;20367;-89
2023/03/21 01:06:40;;;;;;;;;;;;;;;16.92;46.38;93420.31;4998392;28;19926;-89
2023/03/21 01:09:08;;;;;;;;;;;;;;;16.93;46.78;93422.53;5037621;28;19930;-89
2023/03/21 01:11:33;;;;;;;;;;;;;;;16.91;46.45;93419.56;5021600;28;19937;-89
2023/03/21 01:13:59;;;;;;;;;;;;;;;16.91;46.65;93408.63;5020957;28;19926;-90
2023/03/21 01:16:24;;;;;;;;;;;;;;;16.91;46.58;93400.44;5016941;28;19925;-89
2023/03/21 01:18:49;;;;;;;;;;;;;;;16.90;46.32;93414.59;5005091;28;19976;-90
2023/03/21 01:21:15;;;;;;;;;;;;;;;16.87;46.65;93405.44;5037485;28;20020;-89
2023/03/21 01:23:40;;;;;;;;;;;;;;;16.90;46.35;93406.41;5021028;28;20339;-89
2023/03/21 01:26:06;;;;;;;;;;;;;;;16.88;46.60;93406.19;5021084;28;19921;-90
2023/03/21 01:28:31;;;;;;;;;;;;;;;16.88;46.75;93412.41;5025229;28;19953;-90
2023/03/21 01:30:56;;;;;;;;;;;;;;;16.89;46.19;93413.13;4989689;28;19930;-89
2023/03/21 01:33:22;;;;;;;;;;;;;;;16.88;46.66;93419.84;4987510;28;20342;-89
2023/03/21 01:35:47;;;;;;;;;;;;;;;16.89;46.52;93421.34;5003375;28;19957;-88
2023/03/21 01:38:12;;;;;;;;;;;;;;;16.90;46.34;93417.31;5030180;28;20360;-88
2023/03/21 01:40:38;;;;;;;;;;;;;;;16.92;46.58;93429.25;5009649;28;19932;-88
2023/03/21 01:43:03;;;;;;;;;;;;;;;16.90;46.03;93423.53;5021280;28;20289;-90
2023/03/21 01:45:47;;;;;;;;;;;;;;;16.91;46.21;93418.81;5021308;28;20386;-90
2023/03/21 01:48:12;;;;;;;;;;;;;;;16.91;46.20;93416.84;5028608;28;19929;-88
2023/03/21 01:50:38;;;;;;;;;;;;;;;16.91;46.54;93411.38;5035989;28;20010;-88
2023/03/21 01:53:03;;;;;;;;;;;;;;;16.88;46.33;93412.41;5025732;28;19930;-89
2023/03/21 01:55:28;;;;;;;;;;;;;;;16.89;46.32;93402.22;5008529;28;19961;-88
2023/03/21 01:57:53;;;;;;;;;;;;;;;16.86;46.55;93412.16;5008730;28;20319;-89
2023/03/21 02:00:19;;;;;;;;;;;;;;;16.87;46.03;93407.44;5024363;28;19926;-89
2023/03/21 02:02:50;;;;;;;;;;;;;;;16.90;46.47;93409.13;5024223;28;19960;-89
2023/03/21 02:05:19;;;;;;;;;;;;;;;16.89;46.59;93400.22;5023706;28;19925;-90
2023/03/21 02:07:44;;;;;;;;;;;;;;;16.88;46.14;93398.75;5009851;28;19929;-90
2023/03/21 02:10:10;;;;;;;;;;;;;;;16.90;46.14;93398.22;4991245;28;20387;-89
2023/03/21 02:12:37;;;;;;;;;;;;;;;16.90;46.25;93392.75;5007990;28;19947;-89
2023/03/21 02:15:02;;;;;;;;;;;;;;;16.90;46.44;93388.03;5008357;28;19979;-89
2023/03/21 02:17:28;;;;;;;;;;;;;;;16.89;46.02;93394.03;5023686;28;19937;-89
2023/03/21 02:19:59;;;;;;;;;;;;;;;16.90;46.22;93384.56;5008272;28;19953;-88
2023/03/21 02:22:31;;;;;;;;;;;;;;;16.91;46.11;93380.59;5006839;28;20020;-88
2023/03/21 02:25:15;;;;;;;;;;;;;;;16.90;46.48;93388.03;4995453;28;19925;-88
2023/03/21 02:27:51;;;;;;;;;;;;;;;16.88;46.06;93392.53;5027419;28;19929;-89
2023/03/21 02:30:16;;;;;;;;;;;;;;;16.88;46.27;93387.06;5023772;28;19926;-90
2023/03/21 02:32:55;;;;;;;;;;;;;;;16.88;45.93;93378.88;4996288;28;19983;-89
2023/03/21 02:35:21;;;;;;;;;;;;;;;16.90;46.32;93379.84;5023867;28;19921;-90
2023/03/21 02:37:56;;;;;;;;;;;;;;;16.91;46.44;93383.31;4993126;28;19996;-89
2023/03/21 02:40:25;;;;;;;;;;;;;;;16.91;46.24;93384.06;5002346;28;20096;-89
2023/03/21 02:42:54;;;;;;;;;;;;;;;16.93;46.33;93394.50;5018197;28;19952;-90
2023/03/21 02:45:20;;;;;;;;;;;;;;;16.91;46.03;93375.88;5026477;28;19967;-89
2023/03/21 02:47:51;;;;;;;;;;;;;;;16.91;46.04;93380.59;4995150;28;20008;-89
2023/03/21 02:50:23;;;;;;;;;;;;;;;16.89;45.94;93374.91;5028710;28;19925;-91
2023/03/21 02:52:48;;;;;;;;;;;;;;;16.90;45.92;93374.38;5012158;28;19936;-89
2023/03/21 02:55:15;;;;;;;;;;;;;;;16.91;45.84;93369.66;5023538;28;19917;-89
2023/03/21 02:57:41;;;;;;;;;;;;;;;16.91;46.28;93378.59;5023738;28;20041;-89
2023/03/21 03:00:11;;;;;;;;;;;;;;;16.91;46.21;93370.41;5022534;28;20089;-90
2023/03/21 03:02:36;;;;;;;;;;;;;;;16.94;46.28;93374.13;5005671;28;20036;-89
2023/03/21 03:05:09;;;;;;;;;;;;;;;16.93;46.13;93375.38;5003658;28;19950;-88
2023/03/21 03:07:39;;;;;;;;;;;;;;;16.91;46.13;93373.16;5020615;28;20399;-89
2023/03/21 03:10:13;;;;;;;;;;;;;;;16.91;45.73;93373.16;5020364;28;20002;-88
2023/03/21 03:12:38;;;;;;;;;;;;;;;16.92;45.78;93368.44;4990463;28;19937;-88
2023/03/21 03:15:16;;;;;;;;;;;;;;;16.89;46.21;93372.19;5019283;28;19930;-88
2023/03/21 03:17:51;;;;;;;;;;;;;;;16.88;45.83;93371.44;5023092;28;20004;-88
2023/03/21 03:20:23;;;;;;;;;;;;;;;16.89;46.13;93370.16;5002029;28;19926;-88
2023/03/21 03:22:54;;;;;;;;;;;;;;;16.90;46.20;93373.66;5003930;28;19930;-89
2023/03/21 03:25:21;;;;;;;;;;;;;;;16.89;45.76;93378.38;4986105;28;19930;-89
2023/03/21 03:27:46;;;;;;;;;;;;;;;16.87;45.83;93369.22;5022063;28;20194;-90
2023/03/21 03:30:11;;;;;;;;;;;;;;;16.85;45.96;93360.78;5029856;28;19936;-90
2023/03/21 03:32:37;;;;;;;;;;;;;;;16.85;46.27;93358.03;5020230;28;19948;-90
2023/03/21 03:35:03;;;;;;;;;;;;;;;16.86;45.96;93362.25;5019953;28;20300;-88
2023/03/21 03:37:28;;;;;;;;;;;;;;;16.87;46.23;93367.22;5002790;28;20406;-90
2023/03/21 03:40:04;;;;;;;;;;;;;;;16.86;45.63;93354.81;4992714;28;19922;-89
2023/03/21 03:42:35;;;;;;;;;;;;;;;16.85;46.14;93358.78;5013256;28;19995;-89
2023/03/21 03:45:00;;;;;;;;;;;;;;;16.88;45.73;93359.78;5020915;28;19951;-89
2023/03/21 03:47:28;;;;;;;;;;;;;;;16.88;45.98;93355.06;5004706;28;20296;-89
2023/03/21 03:50:07;;;;;;;;;;;;;;;16.88;46.15;93355.06;5024123;28;20402;-89
2023/03/21 03:52:33;;;;;;;;;;;;;;;16.86;46.01;93360.28;5037890;28;19926;-88
2023/03/21 03:54:58;;;;;;;;;;;;;;;16.89;45.82;93358.53;5039094;28;19925;-89
2023/03/21 03:57:24;;;;;;;;;;;;;;;16.86;46.08;93367.72;4988894;28;20315;-89
2023/03/21 03:59:49;;;;;;;;;;;;;;;16.86;45.82;93365.75;5006168;28;20005;-88
2023/03/21 04:02:15;;;;;;;;;;;;;;;16.84;46.15;93368.22;5005026;28;19975;-89
2023/03/21 04:04:41;;;;;;;;;;;;;;;16.83;46.02;93368.72;5002870;28;19926;-88
2023/03/21 04:07:06;;;;;;;;;;;;;;;16.86;46.01;93368.47;5015105;28;20035;-89
2023/03/21 04:09:32;;;;;;;;;;;;;;;16.86;46.11;93367.72;5038808;28;19932;-89
2023/03/21 04:11:57;;;;;;;;;;;;;;;16.86;46.04;93368.47;5006751;28;19940;-89
2023/03/21 04:14:23;;;;;;;;;;;;;;;16.84;45.91;93359.28;5026054;28;19921;-89
2023/03/21 04:16:49;;;;;;;;;;;;;;;16.82;45.92;93367.22;5002934;28;19973;-89
2023/03/21 04:19:14;;;;;;;;;;;;;;;16.82;45.85;93365.25;5021203;28;19944;-89
2023/03/21 04:21:40;;;;;;;;;;;;;;;16.84;46.01;93359.28;5021948;28;19964;-90
2023/03/21 04:24:06;;;;;;;;;;;;;;;16.85;45.75;93366.25;5006627;28;19948;-89
2023/03/21 04:26:32;;;;;;;;;;;;;;;16.85;46.04;93356.06;5020974;28;19948;-89
2023/03/21 04:28:59;;;;;;;;;;;;;;;16.85;45.96;93364.25;5027641;28;19925;-89
2023/03/21 04:31:26;;;;;;;;;;;;;;;16.84;45.81;93365.50;4997340;28;19933;-89
2023/03/21 04:33:51;;;;;;;;;;;;;;;16.86;45.89;93362.25;5034430;28;20528;-89
2023/03/21 04:36:26;;;;;;;;;;;;;;;16.84;45.88;93367.47;5024236;28;19980;-89
2023/03/21 04:38:51;;;;;;;;;;;;;;;16.81;45.83;93366.50;5007398;28;19937;-91
2023/03/21 04:41:16;;;;;;;;;;;;;;;16.80;45.76;93367.72;5008584;28;20167;-90
2023/03/21 04:43:42;;;;;;;;;;;;;;;16.78;46.15;93367.50;5008229;28;20387;-90
2023/03/21 04:46:07;;;;;;;;;;;;;;;16.76;45.92;93364.50;5019624;28;19929;-88
2023/03/21 04:48:32;;;;;;;;;;;;;;;16.76;46.03;93367.25;5006435;28;20693;-91
2023/03/21 04:50:57;;;;;;;;;;;;;;;16.76;45.96;93367.25;5023345;28;20000;-90
2023/03/21 04:53:22;;;;;;;;;;;;;;;16.75;46.22;93363.78;4990363;28;19929;-90
2023/03/21 04:55:48;;;;;;;;;;;;;;;16.77;46.20;93360.53;5003654;28;19925;-89
2023/03/21 04:58:13;;;;;;;;;;;;;;;16.76;45.92;93364.50;5026363;28;19993;-91
2023/03/21 05:00:39;;;;;;;;;;;;;;;16.76;46.25;93368.00;5003523;28;19930;-91
2023/03/21 05:03:07;;;;;;;;;;;;;;;16.76;46.30;93367.25;5011980;28;19930;-90
2023/03/21 05:05:33;;;;;;;;;;;;;;;16.78;46.28;93364.75;5000023;28;20383;-87
2023/03/21 05:07:59;;;;;;;;;;;;;;;16.74;44.22;93367.00;5029926;28;20024;-89
2023/03/21 05:10:24;;;;;;;;;;;;;;;16.58;43.96;93368.50;5004639;28;19932;-90
2023/03/21 05:12:49;;;;;;;;;;;;;;;16.56;43.80;93359.34;5000546;28;19933;-90
2023/03/21 05:15:15;;;;;;;;;;;;;;;16.54;43.99;93361.81;5028216;28;19945;-88
2023/03/21 05:17:41;;;;;;;;;;;;;;;16.55;44.39;93353.13;5003960;28;19936;-89
2023/03/21 05:20:08;;;;;;;;;;;;;;;16.58;44.43;93357.59;5006715;28;20442;-87
2023/03/21 05:22:39;;;;;;;;;;;;;;;16.56;44.01;93359.34;5007501;28;19928;-88
2023/03/21 05:25:05;;;;;;;;;;;;;;;16.61;44.35;93361.31;4989894;28;19935;-88
2023/03/21 05:27:34;;;;;;;;;;;;;;;16.60;44.68;93357.84;5002362;28;20017;-89
2023/03/21 05:30:09;;;;;;;;;;;;;;;16.63;45.00;93365.06;5011168;28;20020;-93
2023/03/21 05:32:35;;;;;;;;;;;;;;;16.70;45.24;93364.53;5009120;28;19925;-89
2023/03/21 05:35:01;;;;;;;;;;;;;;;16.76;45.26;93367.25;5042092;28;19929;-89
2023/03/21 05:37:26;;;;;;;;;;;;;;;16.81;45.10;93371.94;5020835;28;19930;-88
2023/03/21 05:39:51;;;;;;;;;;;;;;;16.86;45.02;93365.00;5024846;28;20285;-90
2023/03/21 05:42:17;;;;;;;;;;;;;;;16.87;44.93;93367.22;5009687;28;19930;-87
2023/03/21 05:44:43;;;;;;;;;;;;;;;16.88;45.14;93373.44;5046999;28;19937;-90
2023/03/21 05:47:12;;;;;;;;;;;;;;;16.90;45.45;93381.84;5010221;28;20047;-91
2023/03/21 05:49:44;;;;;;;;;;;;;;;16.91;45.18;93386.06;4993825;28;20024;-90
2023/03/21 05:52:33;;;;;;;;;;;;;;;16.89;44.85;93381.09;5006522;28;20063;-91
2023/03/21 05:54:58;;;;;;;;;;;;;;;16.72;43.37;93383.88;4976026;28;20506;-91
2023/03/21 05:57:27;;;;;;;;;;;;;;;16.57;44.10;93374.47;4983714;28;20179;-90
2023/03/21 05:59:53;;;;;;;;;;;;;;;16.47;43.85;93379.44;4973250;28;19922;-90
2023/03/21 06:02:19;;;;;;;;;;;;;;;16.49;43.59;93381.66;4969909;28;19930;-92
2023/03/21 06:04:55;;;;;;;;;;;;;;;16.52;43.70;93375.22;4968830;28;19937;-91
2023/03/21 06:07:21;;;;;;;;;;;;;;;16.54;43.75;93373.47;4969437;28;20336;-92
2023/03/21 06:09:50;;;;;;;;;;;;;;;16.56;43.81;93370.25;4963444;28;19937;-91
2023/03/21 06:12:16;;;;;;;;;;;;;;;16.60;43.82;93376.94;4945912;28;19932;-92
2023/03/21 06:14:42;;;;;;;;;;;;;;;16.63;43.76;93372.47;4961436;28;19929;-92
2023/03/21 06:17:10;;;;;;;;;;;;;;;16.64;44.22;93368.53;4957723;28;20362;-92
2023/03/21 06:19:36;;;;;;;;;;;;;;;16.66;44.06;93368.78;4959729;28;19976;-92
2023/03/21 06:22:01;;;;;;;;;;;;;;;16.66;44.28;93374.22;4972255;28;19926;-92
2023/03/21 06:24:26;;;;;;;;;;;;;;;16.70;44.37;93371.97;4974263;28;19926;-93
2023/03/21 06:26:52;;;;;;;;;;;;;;;16.71;44.48;93368.75;4957138;28;19930;-91
2023/03/21 06:29:17;;;;;;;;;;;;;;;16.73;44.38;93363.53;4973266;28;19930;-92
2023/03/21 06:31:42;;;;;;;;;;;;;;;16.73;44.48;93366.25;4984267;28;19932;-93
2023/03/21 06:34:09;;;;;;;;;;;;;;;16.75;44.65;93369.22;5021918;28;19930;-90
2023/03/21 06:36:35;;;;;;;;;;;;;;;16.77;44.81;93371.47;5028490;28;19925;-89
2023/03/21 06:39:00;;;;;;;;;;;;;;;16.78;44.69;93367.50;5039655;28;20013;-91
2023/03/21 06:41:26;;;;;;;;;;;;;;;16.81;44.69;93368.47;5038586;28;21323;-91
2023/03/21 06:43:52;;;;;;;;;;;;;;;16.85;44.45;93366.25;5032492;28;19928;-90
2023/03/21 06:46:19;;;;;;;;;;;;;;;16.86;44.69;93367.72;5013917;28;19932;-92
2023/03/21 06:48:44;;;;;;;;;;;;;;;16.87;44.68;93369.22;4996845;28;19932;-90
2023/03/21 06:51:13;;;;;;;;;;;;;;;16.88;44.62;93379.63;5037677;28;20068;-90
2023/03/21 06:53:40;;;;;;;;;;;;;;;16.89;44.60;93377.66;5025582;28;19933;-89
2023/03/21 06:56:08;;;;;;;;;;;;;;;16.90;44.58;93373.66;5007526;28;19968;-90
2023/03/21 06:58:33;;;;;;;;;;;;;;;16.93;44.44;93376.13;5007974;28;20016;-91
2023/03/21 07:00:59;;;;;;;;;;;;;;;16.96;44.40;93379.84;4993513;28;19930;-90
2023/03/21 07:03:24;;;;;;;;;;;;;;;16.96;44.43;93380.59;5007985;28;19930;-89
2023/03/21 07:05:50;;;;;;;;;;;;;;;17.01;44.92;93377.09;5025160;28;20457;-90
2023/03/21 07:08:18;;;;;;;;;;;;;;;17.03;44.71;93376.59;5025613;28;20251;-90
2023/03/21 07:10:43;;;;;;;;;;;;;;;17.04;44.97;93378.81;5043451;28;19929;-88
2023/03/21 07:13:09;;;;;;;;;;;;;;;17.04;44.85;93386.28;4993415;28;19926;-86
2023/03/21 07:15:36;;;;;;;;;;;;;;;17.06;44.96;93376.34;4993829;28;20000;-87
2023/03/21 07:18:02;;;;;;;;;;;;;;;17.10;44.57;93387.00;5038370;28;19929;-86
2023/03/21 07:20:27;;;;;;;;;;;;;;;17.13;44.98;93392.19;5009259;28;20028;-89
2023/03/21 07:22:53;;;;;;;;;;;;;;;17.14;44.58;93388.19;4993311;28;20329;-86
2023/03/21 07:25:18;;;;;;;;;;;;;;;17.12;44.33;93385.22;5009253;28;20230;-89
2023/03/21 07:27:45;;;;;;;;;;;;;;;17.14;44.25;93387.47;5016853;28;19987;-91
2023/03/21 07:30:10;;;;;;;;;;;;;;;17.17;44.55;93383.72;4996614;28;20370;-89
2023/03/21 07:32:36;;;;;;;;;;;;;;;17.17;44.52;93385.72;5021929;28;20057;-89
2023/03/21 07:35:02;;;;;;;;;;;;;;;17.16;44.40;93390.44;5013006;28;20446;-88
2023/03/21 07:37:27;;;;;;;;;;;;;;;17.15;44.49;93386.22;5004196;28;19937;-89
2023/03/21 07:39:52;;;;;;;;;;;;;;;17.17;44.39;93385.72;5009448;28;20288;-90
2023/03/21 07:42:17;;;;;;;;;;;;;;;17.19;45.05;93383.97;5038104;28;19933;-90
2023/03/21 07:44:43;;;;;;;;;;;;;;;17.19;44.75;93378.50;5006090;28;19984;-89
2023/03/21 07:47:08;;;;;;;;;;;;;;;17.21;44.47;93381.47;4982381;28;19933;-89
2023/03/21 07:49:33;;;;;;;;;;;;;;;17.24;44.80;93382.47;5006106;28;19922;-90
2023/03/21 07:52:00;;;;;;;;;;;;;;;17.23;44.67;93381.72;5024739;28;19980;-89
2023/03/21 07:54:27;;;;;;;;;;;;;;;17.22;44.28;93376.75;5025927;28;19928;-92
2023/03/21 07:56:52;;;;;;;;;;;;;;;17.22;44.73;93379.50;5038572;28;19929;-89
2023/03/21 07:59:17;;;;;;;;;;;;;;;17.23;44.86;93379.00;5027596;28;20407;-88
2023/03/21 08:01:43;;;;;;;;;;;;;;;17.25;44.87;93381.22;5026560;28;19937;-89
2023/03/21 08:04:08;;;;;;;;;;;;;;;17.27;44.86;93376.75;5026365;28;19930;-90
2023/03/21 08:06:34;;;;;;;;;;;;;;;17.28;44.25;93378.22;5029582;28;20615;-91
2023/03/21 08:08:59;;;;;;;;;;;;;;;17.29;44.51;93379.72;5011671;28;19922;-90
2023/03/21 08:11:26;;;;;;;;;;;;;;;17.28;44.44;93389.16;5025827;28;19936;-89
2023/03/21 08:13:54;;;;;;;;;;;;;;;17.30;44.83;93380.47;5024807;28;20043;-91
2023/03/21 08:16:20;;;;;;;;;;;;;;;17.30;45.00;93375.75;4993225;28;19968;-91
2023/03/21 08:18:45;;;;;;;;;;;;;;;17.31;44.87;93382.69;5012989;28;19926;-92
2023/03/21 08:21:10;;;;;;;;;;;;;;;17.31;44.68;93377.22;5006431;28;20300;-91
2023/03/21 08:23:37;;;;;;;;;;;;;;;17.32;45.07;93378.69;5027111;28;19981;-91
2023/03/21 08:26:02;;;;;;;;;;;;;;;17.34;44.87;93375.44;4996365;28;20072;-90
2023/03/21 08:28:28;;;;;;;;;;;;;;;17.36;44.86;93378.41;5043820;28;19964;-92
2023/03/21 08:30:53;;;;;;;;;;;;;;;17.39;45.10;93385.63;5027448;28;20410;-90
2023/03/21 08:33:18;;;;;;;;;;;;;;;17.38;44.73;93384.88;5011189;28;19925;-91
2023/03/21 08:35:44;;;;;;;;;;;;;;;17.40;44.64;93390.56;5026390;28;19928;-92
2023/03/21 08:38:11;;;;;;;;;;;;;;;17.40;44.43;93381.63;5009980;28;19944;-92
2023/03/21 08:40:37;;;;;;;;;;;;;;;17.40;44.63;93385.13;5004980;28;19984;-90
2023/03/21 08:43:02;;;;;;;;;;;;;;;17.40;44.56;93385.13;5027777;28;20464;-91
2023/03/21 08:45:28;;;;;;;;;;;;;;;17.41;44.58;93385.84;5005696;28;20027;-92
2023/03/21 08:47:53;;;;;;;;;;;;;;;17.41;44.89;93385.84;5001869;28;20291;-91
2023/03/21 08:50:19;;;;;;;;;;;;;;;17.41;44.83;93388.59;5008811;28;19933;-90
2023/03/21 08:52:44;;;;;;;;;;;;;;;17.41;44.82;93388.59;5040920;28;20439;-90
2023/03/21 08:55:10;;;;;;;;;;;;;;;17.41;44.68;93381.13;5023980;28;19926;-91
2023/03/21 08:57:36;;;;;;;;;;;;;;;17.44;44.62;93385.59;5048048;28;19929;-88
2023/03/21 09:00:06;;;;;;;;;;;;;;;17.41;44.44;93383.13;5048007;28;19926;-91
2023/03/21 09:02:31;;;;;;;;;;;;;;;17.36;44.33;93381.16;5051311;28;19925;-90
2023/03/21 09:04:57;;;;;;;;;;;;;;;17.31;43.87;93379.97;5052330;28;19948;-90
2023/03/21 09:07:24;;;;;;;;;;;;;;;17.28;44.00;93380.22;5036914;28;19971;-91
2023/03/21 09:09:51;;;;;;;;;;;;;;;17.27;43.85;93384.94;5026929;28;19925;-90
2023/03/21 09:12:17;;;;;;;;;;;;;;;17.25;43.80;93383.94;5043449;28;19925;-89
2023/03/21 09:14:42;;;;;;;;;;;;;;;17.24;44.01;93385.19;5027501;28;19925;-92
2023/03/21 09:17:07;;;;;;;;;;;;;;;17.21;43.77;93380.75;5026148;28;19938;-92
2023/03/21 09:19:33;;;;;;;;;;;;;;;17.21;43.74;93375.28;5033529;28;19925;-90
2023/03/21 09:21:59;;;;;;;;;;;;;;;17.18;43.86;93401.59;5009820;28;20604;-90
2023/03/21 09:24:25;;;;;;;;;;;;;;;17.20;44.25;93390.19;4993689;28;19926;-93
2023/03/21 09:26:50;;;;;;;;;;;;;;;17.21;44.54;93392.41;4997498;28;20293;-91
2023/03/21 09:29:17;;;;;;;;;;;;;;;17.22;44.27;93393.91;5012266;28;20407;-91
2023/03/21 09:31:43;;;;;;;;;;;;;;;17.24;44.06;93396.13;5005238;28;20028;-92
2023/03/21 09:34:08;;;;;;;;;;;;;;;17.25;43.89;93398.34;5014009;28;20368;-91
2023/03/21 09:36:35;;;;;;;;;;;;;;;17.27;44.47;93389.66;5003899;28;19926;-92
2023/03/21 09:39:02;;;;;;;;;;;;;;;17.29;44.19;93390.66;4997725;28;19959;-92
2023/03/21 09:41:48;;;;;;;;;;;;;;;17.32;44.30;93384.16;5046736;28;19958;-92
2023/03/21 09:44:36;;;;;;;;;;;;;;;17.34;44.66;93386.38;5048459;28;19947;-92
2023/03/21 09:47:08;;;;;;;;;;;;;;;17.35;44.69;93385.13;5002997;28;19930;-92
2023/03/21 09:49:34;;;;;;;;;;;;;;;17.35;44.23;93391.34;5033509;28;19928;-93
2023/03/21 09:52:11;;;;;;;;;;;;;;;17.32;44.25;93383.44;5002171;28;19936;-92
2023/03/21 09:54:39;;;;;;;;;;;;;;;17.25;43.63;93384.69;5014071;28;20300;-93
2023/03/21 09:57:14;;;;;;;;;;;;;;;17.20;43.38;93385.47;5032611;28;19922;-93
2023/03/21 09:59:40;;;;;;;;;;;;;;;17.17;43.60;93382.97;5010244;28;19924;-93
2023/03/21 10:02:31;;;;;;;;;;;;;;;17.21;43.88;93388.94;5013261;28;19929;-94
2023/03/21 10:04:59;;;;;;;;;;;;;;;17.21;43.77;93381.47;5049950;28;19925;-92
2023/03/21 10:07:29;;;;;;;;;;;;;;;17.22;43.70;93376.75;4997510;28;20343;-93
2023/03/21 10:10:06;;;;;;;;;;;;;;;17.25;44.06;93379.22;5027292;28;19932;-92
2023/03/21 10:13:04;;;;;;;;;;;;;;;17.26;43.88;93385.44;4993752;28;19948;-93
2023/03/21 10:16:17;;;;;;;;;;;;;;;17.28;44.23;93385.69;5004496;28;19930;-96
2023/03/21 10:18:45;;;;;;;;;;;;;;;17.29;44.61;93365.31;5033635;28;20690;-93
2023/03/21 10:21:23;;;;;;;;;;;;;;;17.31;44.77;93374.50;4971495;28;20424;-92
2023/03/21 10:23:52;;;;;;;;;;;;;;;17.31;44.31;93362.81;4961301;28;20423;-91
2023/03/21 10:26:18;;;;;;;;;;;;;;;17.32;44.58;93367.03;4976456;28;20016;-91
2023/03/21 10:28:45;;;;;;;;;;;;;;;17.32;44.82;93364.31;4959244;28;19929;-91
2023/03/21 10:31:13;;;;;;;;;;;;;;;17.33;44.51;93371.97;4972191;28;20055;-90
2023/03/21 10:33:41;;;;;;;;;;;;;;;17.36;44.67;93365.50;5016379;28;19957;-92
2023/03/21 10:36:19;;;;;;;;;;;;;;;17.37;44.75;93369.72;4979893;28;19985;-93
2023/03/21 10:39:03;;;;;;;;;;;;;;;17.37;44.81;93369.72;4981101;28;19922;-93
2023/03/21 10:41:28;;;;;;;;;;;;;;;17.40;44.82;93365.97;4955221;28;19925;-92
2023/03/21 10:44:05;;;;;;;;;;;;;;;17.38;44.57;93365.00;4995752;28;19944;-92
2023/03/21 10:46:32;;;;;;;;;;;;;;;17.38;44.83;93365.75;5040687;28;19929;-92
2023/03/21 10:48:57;;;;;;;;;;;;;;;17.39;44.66;93371.94;5008788;28;20308;-91
2023/03/21 10:51:25;;;;;;;;;;;;;;;17.39;45.33;93364.50;5044608;28;19938;-91
2023/03/21 10:53:57;;;;;;;;;;;;;;;17.42;44.90;93360.00;5008588;28;19992;-92
2023/03/21 10:56:24;;;;;;;;;;;;;;;17.41;44.77;93362.00;5024505;28;19941;-90
2023/03/21 10:58:51;;;;;;;;;;;;;;;17.41;45.12;93359.28;5040214;28;19922;-92
2023/03/21 11:01:24;;;;;;;;;;;;;;;17.43;45.23;93361.50;5038389;28;19984;-91
2023/03/21 11:03:50;;;;;;;;;;;;;;;17.41;44.89;93359.28;4997395;28;20396;-91
2023/03/21 11:06:21;;;;;;;;;;;;;;;17.40;44.38;93363.25;5009860;28;19932;-91
2023/03/21 11:08:47;;;;;;;;;;;;;;;17.40;44.62;93357.03;5043965;28;20187;-92
2023/03/21 11:11:26;;;;;;;;;;;;;;;17.41;44.52;93356.53;5039101;28;19956;-91
2023/03/21 11:14:00;;;;;;;;;;;;;;;17.40;44.71;93355.06;5029293;28;19925;-91
2023/03/21 11:16:29;;;;;;;;;;;;;;;17.40;44.46;93354.31;5011712;28;19925;-91
2023/03/21 11:19:00;;;;;;;;;;;;;;;17.40;44.47;93354.31;4995291;28;21066;-92
2023/03/21 11:21:27;;;;;;;;;;;;;;;17.40;45.05;93349.59;5017576;28;19929;-95
2023/03/21 11:23:53;;;;;;;;;;;;;;;17.39;44.96;93358.28;5012468;28;19928;-93
2023/03/21 11:26:36;;;;;;;;;;;;;;;17.39;44.53;93350.09;5002364;28;20024;-93
2023/03/21 11:29:20;;;;;;;;;;;;;;;17.39;44.47;93344.63;4994684;28;19921;-91
2023/03/21 11:31:45;;;;;;;;;;;;;;;17.39;44.58;93341.91;5032448;28;20259;-92
2023/03/21 11:34:20;;;;;;;;;;;;;;;17.40;44.90;93343.38;5011901;28;19989;-92
2023/03/21 11:36:47;;;;;;;;;;;;;;;17.40;44.65;93337.91;4993269;28;19925;-91
2023/03/21 11:39:20;;;;;;;;;;;;;;;17.40;44.43;93327.72;5016754;28;19921;-93
2023/03/21 11:41:46;;;;;;;;;;;;;;;17.41;44.48;93326.47;5025758;28;20385;-93
2023/03/21 11:44:25;;;;;;;;;;;;;;;17.42;44.75;93327.22;5006756;28;19932;-91
2023/03/21 11:46:53;;;;;;;;;;;;;;;17.42;44.65;93317.03;5013246;28;19975;-90
2023/03/21 11:49:18;;;;;;;;;;;;;;;17.41;45.15;93307.34;4993942;28;19937;-92
2023/03/21 11:51:49;;;;;;;;;;;;;;;17.41;44.84;93307.34;5015793;28;19929;-93
2023/03/21 11:54:14;;;;;;;;;;;;;;;17.42;45.43;93305.38;4988603;28;19956;-91
2023/03/21 11:56:43;;;;;;;;;;;;;;;17.44;44.95;93313.78;5016848;28;20408;-92
2023/03/21 11:59:20;;;;;;;;;;;;;;;17.43;44.89;93304.13;5020847;28;19922;-90
2023/03/21 12:01:46;;;;;;;;;;;;;;;17.44;45.01;93291.94;5007195;28;19936;-92
2023/03/21 12:04:19;;;;;;;;;;;;;;;17.42;44.87;93292.44;5041670;28;19929;-92
2023/03/21 12:06:51;;;;;;;;;;;;;;;17.44;44.90;93297.41;5010469;28;20131;-88
2023/03/21 12:09:22;;;;;;;;;;;;;;;17.44;45.08;93292.69;5021705;28;19929;-88
2023/03/21 12:11:58;;;;;;;;;;;;;;;17.45;45.07;93290.69;5012867;28;22232;-87
2023/03/21 12:14:26;;;;;;;;;;;;;;;17.46;44.91;93283.97;4993495;28;19928;-88
2023/03/21 12:16:55;;;;;;;;;;;;;;;17.46;45.21;93279.25;5003931;28;19933;-87
2023/03/21 12:19:26;;;;;;;;;;;;;;;17.46;45.45;93276.53;4991216;28;19922;-87
2023/03/21 12:21:53;;;;;;;;;;;;;;;17.47;44.85;93269.06;5011243;28;19956;-87
2023/03/21 12:24:19;;;;;;;;;;;;;;;17.49;45.32;93269.31;5043023;28;19925;-87
2023/03/21 12:26:51;;;;;;;;;;;;;;;17.48;44.84;93276.00;4993185;28;19967;-87
2023/03/21 12:29:19;;;;;;;;;;;;;;;17.50;45.70;93270.78;5007771;28;19952;-87
2023/03/21 12:31:57;;;;;;;;;;;;;;;17.51;45.08;93269.53;5024287;28;19991;-87
2023/03/21 12:34:41;;;;;;;;;;;;;;;17.52;45.04;93265.56;5008569;28;19930;-88
2023/03/21 12:37:07;;;;;;;;;;;;;;;17.53;45.10;93266.31;5007326;28;19925;-87
2023/03/21 12:39:36;;;;;;;;;;;;;;;17.54;45.29;93268.50;5008034;28;20399;-89
2023/03/21 12:42:20;;;;;;;;;;;;;;;17.55;46.02;93261.78;5009723;28;19974;-87
2023/03/21 12:44:46;;;;;;;;;;;;;;;17.56;45.63;93266.00;5000054;28;19927;-91
2023/03/21 12:47:16;;;;;;;;;;;;;;;17.55;45.17;93256.31;5021566;28;19930;-88
2023/03/21 12:49:42;;;;;;;;;;;;;;;17.56;45.22;93262.53;5024731;28;19998;-88
2023/03/21 12:52:10;;;;;;;;;;;;;;;17.56;45.12;93262.53;5010191;28;19926;-88